sensor_id;sensor_type;location;lat;lon;timestamp;pressure;altitude;pressure_sealevel;temperature;humidity
36630;BME280;36256;42.154;23.002;2023-03-15T00:01:40;96213.69;;;8.37;78.48
36630;BME280;36256;42.154;23.002;2023-03-15T00:04:07;96221.47;;;8.42;78.58
36630;BME280;36256;42.154;23.002;2023-03-15T00:06:34;96206.09;;;8.29;78.64
36630;BME280;36256;42.154;23.002;2023-03-15T00:09:00;96218.03;;;8.47;78.79
36630;BME280;36256;42.154;23.002;2023-03-15T00:11:29;96214.16;;;8.45;78.87
36630;BME280;36256;42.154;23.002;2023-03-15T00:13:59;96194.75;;;8.41;78.78
36630;BME280;36256;42.154;23.002;2023-03-15T00:16:28;96213.84;;;8.52;78.21
36630;BME280;36256;42.154;23.002;2023-03-15T00:18:55;96200.66;;;8.43;78.20
36630;BME280;36256;42.154;23.002;2023-03-15T00:21:22;96201.13;;;8.51;77.38
36630;BME280;36256;42.154;23.002;2023-03-15T00:23:49;96203.28;;;8.65;77.24
36630;BME280;36256;42.154;23.002;2023-03-15T00:26:15;96188.69;;;8.61;77.43
36630;BME280;36256;42.154;23.002;2023-03-15T00:28:42;96194.25;;;8.79;76.73
36630;BME280;36256;42.154;23.002;2023-03-15T00:31:15;96186.31;;;8.78;76.44
36630;BME280;36256;42.154;23.002;2023-03-15T00:33:43;96188.03;;;8.84;76.38
36630;BME280;36256;42.154;23.002;2023-03-15T00:36:10;96179.31;;;8.91;76.32
36630;BME280;36256;42.154;23.002;2023-03-15T00:38:37;96178.06;;;8.83;75.63
36630;BME280;36256;42.154;23.002;2023-03-15T00:41:10;96184.16;;;8.73;76.24
36630;BME280;36256;42.154;23.002;2023-03-15T00:43:37;96184.66;;;8.44;77.35
36630;BME280;36256;42.154;23.002;2023-03-15T00:46:04;96180.47;;;8.30;78.71
36630;BME280;36256;42.154;23.002;2023-03-15T00:48:32;96173.47;;;8.44;78.37
36630;BME280;36256;42.154;23.002;2023-03-15T00:51:11;96180.31;;;8.52;77.95
36630;BME280;36256;42.154;23.002;2023-03-15T00:53:40;96151.13;;;8.44;77.97
36630;BME280;36256;42.154;23.002;2023-03-15T00:56:12;96180.00;;;8.59;77.33
36630;BME280;36256;42.154;23.002;2023-03-15T00:58:40;96179.03;;;8.62;77.04
36630;BME280;36256;42.154;23.002;2023-03-15T01:01:12;96179.38;;;8.55;77.27
36630;BME280;36256;42.154;23.002;2023-03-15T01:03:40;96178.44;;;8.67;79.21
36630;BME280;36256;42.154;23.002;2023-03-15T01:06:08;96158.25;;;8.63;77.86
36630;BME280;36256;42.154;23.002;2023-03-15T01:08:35;96160.25;;;8.53;77.84
36630;BME280;36256;42.154;23.002;2023-03-15T01:11:04;96161.03;;;8.54;77.69
36630;BME280;36256;42.154;23.002;2023-03-15T01:13:31;96160.72;;;8.61;78.36
36630;BME280;36256;42.154;23.002;2023-03-15T01:15:58;96149.53;;;8.61;77.51
36630;BME280;36256;42.154;23.002;2023-03-15T01:18:25;96135.88;;;8.54;77.61
36630;BME280;36256;42.154;23.002;2023-03-15T01:20:52;96137.75;;;8.57;77.74
36630;BME280;36256;42.154;23.002;2023-03-15T01:23:19;96132.66;;;8.37;79.25
36630;BME280;36256;42.154;23.002;2023-03-15T01:25:46;96134.81;;;8.33;81.59
36630;BME280;36256;42.154;23.002;2023-03-15T01:28:12;96126.88;;;8.14;81.82
36630;BME280;36256;42.154;23.002;2023-03-15T01:30:39;96134.47;;;8.13;82.28
36630;BME280;36256;42.154;23.002;2023-03-15T01:33:06;96126.72;;;7.99;84.01
36630;BME280;36256;42.154;23.002;2023-03-15T01:35:33;96128.91;;;8.04;83.37
36630;BME280;36256;42.154;23.002;2023-03-15T01:37:59;96128.75;;;7.99;83.29
36630;BME280;36256;42.154;23.002;2023-03-15T01:40:26;96120.97;;;8.03;84.01
36630;BME280;36256;42.154;23.002;2023-03-15T01:43:16;96114.78;;;8.17;83.51
36630;BME280;36256;42.154;23.002;2023-03-15T01:48:46;96119.16;;;8.27;83.01
36630;BME280;36256;42.154;23.002;2023-03-15T01:51:19;96115.09;;;8.37;82.44
36630;BME280;36256;42.154;23.002;2023-03-15T01:54:14;96104.06;;;8.42;81.67
36630;BME280;36256;42.154;23.002;2023-03-15T01:56:41;96084.94;;;8.50;80.05
36630;BME280;36256;42.154;23.002;2023-03-15T01:59:17;96094.56;;;8.58;79.17
36630;BME280;36256;42.154;23.002;2023-03-15T02:01:47;96082.47;;;8.43;82.37
36630;BME280;36256;42.154;23.002;2023-03-15T02:04:17;96099.88;;;8.38;84.23
36630;BME280;36256;42.154;23.002;2023-03-15T02:06:51;96094.59;;;8.40;85.07
36630;BME280;36256;42.154;23.002;2023-03-15T02:12:27;96091.19;;;8.27;82.08
36630;BME280;36256;42.154;23.002;2023-03-15T02:14:57;96089.19;;;8.27;81.67
36630;BME280;36256;42.154;23.002;2023-03-15T02:17:32;96078.47;;;8.26;81.96
36630;BME280;36256;42.154;23.002;2023-03-15T02:28:13;96084.34;;;8.01;84.69
36630;BME280;36256;42.154;23.002;2023-03-15T02:30:41;96077.25;;;7.72;86.56
36630;BME280;36256;42.154;23.002;2023-03-15T02:33:27;96073.50;;;7.57;88.64
36630;BME280;36256;42.154;23.002;2023-03-15T02:35:56;96071.47;;;7.31;91.24
36630;BME280;36256;42.154;23.002;2023-03-15T02:38:31;96057.94;;;7.29;91.88
36630;BME280;36256;42.154;23.002;2023-03-15T02:40:58;96057.38;;;7.43;91.46
36630;BME280;36256;42.154;23.002;2023-03-15T02:43:28;96044.34;;;7.49;89.96
36630;BME280;36256;42.154;23.002;2023-03-15T02:45:56;96035.66;;;7.56;88.53
36630;BME280;36256;42.154;23.002;2023-03-15T02:48:24;96039.53;;;7.68;87.94
36630;BME280;36256;42.154;23.002;2023-03-15T02:50:51;96036.75;;;7.77;87.29
36630;BME280;36256;42.154;23.002;2023-03-15T02:53:17;96039.38;;;7.80;87.23
36630;BME280;36256;42.154;23.002;2023-03-15T02:55:44;96033.03;;;7.89;86.62
36630;BME280;36256;42.154;23.002;2023-03-15T02:58:11;96024.16;;;8.00;85.80
36630;BME280;36256;42.154;23.002;2023-03-15T03:00:38;96020.41;;;8.03;84.37
36630;BME280;36256;42.154;23.002;2023-03-15T03:03:04;96017.19;;;8.04;84.19
36630;BME280;36256;42.154;23.002;2023-03-15T03:05:31;96019.50;;;8.06;84.07
36630;BME280;36256;42.154;23.002;2023-03-15T03:07:58;96010.63;;;8.07;84.42
36630;BME280;36256;42.154;23.002;2023-03-15T03:10:25;95999.81;;;8.00;83.91
36630;BME280;36256;42.154;23.002;2023-03-15T03:12:52;96013.00;;;8.09;83.16
36630;BME280;36256;42.154;23.002;2023-03-15T03:15:19;96008.00;;;8.13;82.70
36630;BME280;36256;42.154;23.002;2023-03-15T03:17:46;96001.63;;;8.12;82.29
36630;BME280;36256;42.154;23.002;2023-03-15T03:20:13;95998.84;;;8.12;82.25
36630;BME280;36256;42.154;23.002;2023-03-15T03:22:40;95996.34;;;8.14;82.20
36630;BME280;36256;42.154;23.002;2023-03-15T03:25:08;95994.66;;;8.17;81.53
36630;BME280;36256;42.154;23.002;2023-03-15T03:27:38;95990.28;;;8.16;81.70
36630;BME280;36256;42.154;23.002;2023-03-15T03:30:07;95989.69;;;8.12;81.39
36630;BME280;36256;42.154;23.002;2023-03-15T03:32:35;96001.50;;;8.07;81.88
36630;BME280;36256;42.154;23.002;2023-03-15T03:35:02;96009.25;;;8.03;83.58
36630;BME280;36256;42.154;23.002;2023-03-15T03:37:29;95992.53;;;7.84;83.78
36630;BME280;36256;42.154;23.002;2023-03-15T03:39:56;95996.25;;;7.90;84.12
36630;BME280;36256;42.154;23.002;2023-03-15T03:42:23;95995.47;;;7.90;85.12
36630;BME280;36256;42.154;23.002;2023-03-15T03:44:50;95995.63;;;7.86;83.70
36630;BME280;36256;42.154;23.002;2023-03-15T03:47:19;96008.81;;;7.86;83.28
36630;BME280;36256;42.154;23.002;2023-03-15T03:49:46;95998.91;;;7.85;83.09
36630;BME280;36256;42.154;23.002;2023-03-15T03:52:12;95994.72;;;7.89;84.31
36630;BME280;36256;42.154;23.002;2023-03-15T03:54:39;96004.63;;;7.90;84.63
36630;BME280;36256;42.154;23.002;2023-03-15T03:57:09;95997.03;;;7.91;84.89
36630;BME280;36256;42.154;23.002;2023-03-15T03:59:36;95993.16;;;7.88;84.27
36630;BME280;36256;42.154;23.002;2023-03-15T04:02:02;95988.34;;;7.89;83.94
36630;BME280;36256;42.154;23.002;2023-03-15T04:04:29;95983.22;;;7.87;85.04
36630;BME280;36256;42.154;23.002;2023-03-15T04:06:56;95988.78;;;7.97;83.90
36630;BME280;36256;42.154;23.002;2023-03-15T04:09:22;95962.41;;;7.98;82.39
36630;BME280;36256;42.154;23.002;2023-03-15T04:11:51;95969.03;;;8.09;81.85
36630;BME280;36256;42.154;23.002;2023-03-15T04:14:18;95965.63;;;8.05;82.52
36630;BME280;36256;42.154;23.002;2023-03-15T04:16:45;95958.81;;;8.06;81.50
36630;BME280;36256;42.154;23.002;2023-03-15T04:19:12;95970.81;;;7.88;83.23
36630;BME280;36256;42.154;23.002;2023-03-15T04:21:39;95966.16;;;7.85;84.31
36630;BME280;36256;42.154;23.002;2023-03-15T04:24:12;95963.81;;;7.84;83.58
36630;BME280;36256;42.154;23.002;2023-03-15T04:26:39;95968.97;;;7.76;82.88
36630;BME280;36256;42.154;23.002;2023-03-15T04:29:08;95973.47;;;7.74;83.08
36630;BME280;36256;42.154;23.002;2023-03-15T04:31:35;95977.03;;;7.74;83.67
36630;BME280;36256;42.154;23.002;2023-03-15T04:34:03;95958.72;;;7.73;83.51
36630;BME280;36256;42.154;23.002;2023-03-15T04:36:30;95976.56;;;7.85;82.70
36630;BME280;36256;42.154;23.002;2023-03-15T04:38:57;95981.38;;;7.75;82.89
36630;BME280;36256;42.154;23.002;2023-03-15T04:41:32;95969.63;;;7.62;84.75
36630;BME280;36256;42.154;23.002;2023-03-15T04:44:03;95986.34;;;7.71;84.22
36630;BME280;36256;42.154;23.002;2023-03-15T04:46:31;95982.94;;;7.76;83.67
36630;BME280;36256;42.154;23.002;2023-03-15T04:48:59;95984.47;;;7.86;83.50
36630;BME280;36256;42.154;23.002;2023-03-15T04:51:26;95987.88;;;7.81;85.69
36630;BME280;36256;42.154;23.002;2023-03-15T04:53:52;95986.63;;;7.82;85.79
36630;BME280;36256;42.154;23.002;2023-03-15T04:56:19;95984.47;;;7.86;85.71
36630;BME280;36256;42.154;23.002;2023-03-15T04:58:46;95989.25;;;7.86;86.23
36630;BME280;36256;42.154;23.002;2023-03-15T05:01:12;95980.44;;;7.87;85.34
36630;BME280;36256;42.154;23.002;2023-03-15T05:03:39;95988.66;;;7.82;85.35
36630;BME280;36256;42.154;23.002;2023-03-15T05:06:06;95987.59;;;7.70;84.60
36630;BME280;36256;42.154;23.002;2023-03-15T05:08:36;95991.00;;;7.65;84.39
36630;BME280;36256;42.154;23.002;2023-03-15T05:11:03;95982.94;;;7.67;84.61
36630;BME280;36256;42.154;23.002;2023-03-15T05:13:30;95985.09;;;7.54;84.71
36630;BME280;36256;42.154;23.002;2023-03-15T05:15:57;95978.28;;;7.46;86.38
36630;BME280;36256;42.154;23.002;2023-03-15T05:18:24;95989.75;;;7.48;85.54
36630;BME280;36256;42.154;23.002;2023-03-15T05:20:50;95998.28;;;7.45;86.82
36630;BME280;36256;42.154;23.002;2023-03-15T05:23:17;95990.22;;;7.47;85.81
36630;BME280;36256;42.154;23.002;2023-03-15T05:25:49;95993.16;;;7.52;85.64
36630;BME280;36256;42.154;23.002;2023-03-15T05:28:20;96004.03;;;7.59;85.92
36630;BME280;36256;42.154;23.002;2023-03-15T05:30:47;95993.00;;;7.65;84.07
36630;BME280;36256;42.154;23.002;2023-03-15T05:33:14;95996.72;;;7.71;83.38
36630;BME280;36256;42.154;23.002;2023-03-15T05:35:41;95998.41;;;7.77;82.72
36630;BME280;36256;42.154;23.002;2023-03-15T05:38:10;96000.75;;;7.88;83.12
36630;BME280;36256;42.154;23.002;2023-03-15T05:40:44;95998.41;;;7.96;83.30
36630;BME280;36256;42.154;23.002;2023-03-15T05:43:11;95986.75;;;7.97;83.42
36630;BME280;36256;42.154;23.002;2023-03-15T05:45:38;95999.31;;;8.11;83.28
36630;BME280;36256;42.154;23.002;2023-03-15T05:48:05;95983.31;;;8.11;82.33
36630;BME280;36256;42.154;23.002;2023-03-15T05:50:31;95982.69;;;8.25;81.23
36630;BME280;36256;42.154;23.002;2023-03-15T05:52:58;95968.84;;;8.22;79.33
36630;BME280;36256;42.154;23.002;2023-03-15T05:55:25;95980.03;;;8.31;79.57
36630;BME280;36256;42.154;23.002;2023-03-15T05:57:52;95977.53;;;8.24;80.16
36630;BME280;36256;42.154;23.002;2023-03-15T06:00:19;95977.59;;;8.15;80.39
36630;BME280;36256;42.154;23.002;2023-03-15T06:02:46;95969.53;;;7.99;81.69
36630;BME280;36256;42.154;23.002;2023-03-15T06:05:12;95967.22;;;7.97;83.01
36630;BME280;36256;42.154;23.002;2023-03-15T06:07:39;95970.81;;;7.88;84.48
36630;BME280;36256;42.154;23.002;2023-03-15T06:10:06;95964.31;;;7.73;86.96
36630;BME280;36256;42.154;23.002;2023-03-15T06:12:33;95950.22;;;7.68;87.21
36630;BME280;36256;42.154;23.002;2023-03-15T06:14:59;95976.09;;;7.77;88.26
36630;BME280;36256;42.154;23.002;2023-03-15T06:17:26;95971.13;;;7.81;88.58
36630;BME280;36256;42.154;23.002;2023-03-15T06:19:53;95977.47;;;7.82;89.99
36630;BME280;36256;42.154;23.002;2023-03-15T06:22:19;95971.09;;;7.90;88.39
36630;BME280;36256;42.154;23.002;2023-03-15T06:24:46;95970.47;;;7.96;88.67
36630;BME280;36256;42.154;23.002;2023-03-15T06:27:12;95976.50;;;8.03;87.98
36630;BME280;36256;42.154;23.002;2023-03-15T06:29:39;95978.97;;;8.19;88.31
36630;BME280;36256;42.154;23.002;2023-03-15T06:32:06;95973.84;;;8.27;87.06
36630;BME280;36256;42.154;23.002;2023-03-15T06:34:32;95977.81;;;8.44;85.90
36630;BME280;36256;42.154;23.002;2023-03-15T06:36:59;95971.63;;;8.40;85.44
36630;BME280;36256;42.154;23.002;2023-03-15T06:39:26;95978.94;;;8.37;84.96
36630;BME280;36256;42.154;23.002;2023-03-15T06:41:52;95970.97;;;8.45;84.17
36630;BME280;36256;42.154;23.002;2023-03-15T06:44:22;95973.69;;;8.63;83.15
36630;BME280;36256;42.154;23.002;2023-03-15T06:46:49;95956.22;;;8.77;80.66
36630;BME280;36256;42.154;23.002;2023-03-15T06:49:16;95955.31;;;8.71;79.60
36630;BME280;36256;42.154;23.002;2023-03-15T06:51:42;95957.84;;;8.93;78.34
36630;BME280;36256;42.154;23.002;2023-03-15T06:54:10;95948.25;;;9.08;76.72
36630;BME280;36256;42.154;23.002;2023-03-15T06:56:37;95955.16;;;9.22;75.51
36630;BME280;36256;42.154;23.002;2023-03-15T06:59:04;95963.22;;;9.29;75.75
36630;BME280;36256;42.154;23.002;2023-03-15T07:01:30;95973.03;;;9.24;75.50
36630;BME280;36256;42.154;23.002;2023-03-15T07:03:57;95966.41;;;9.36;74.71
36630;BME280;36256;42.154;23.002;2023-03-15T07:06:24;95967.53;;;9.30;74.37
36630;BME280;36256;42.154;23.002;2023-03-15T07:08:53;95974.50;;;9.11;75.25
36630;BME280;36256;42.154;23.002;2023-03-15T07:11:20;95947.06;;;9.00;74.26
36630;BME280;36256;42.154;23.002;2023-03-15T07:13:46;95966.84;;;9.20;73.95
36630;BME280;36256;42.154;23.002;2023-03-15T07:16:13;95966.69;;;9.38;73.09
36630;BME280;36256;42.154;23.002;2023-03-15T07:18:40;95968.13;;;9.72;70.93
36630;BME280;36256;42.154;23.002;2023-03-15T07:21:06;95953.88;;;10.14;66.18
36630;BME280;36256;42.154;23.002;2023-03-15T07:23:33;95936.88;;;10.03;63.78
36630;BME280;36256;42.154;23.002;2023-03-15T07:26:00;95945.16;;;9.97;64.69
36630;BME280;36256;42.154;23.002;2023-03-15T07:28:27;95929.91;;;9.84;63.20
36630;BME280;36256;42.154;23.002;2023-03-15T07:30:59;95921.00;;;9.85;62.17
36630;BME280;36256;42.154;23.002;2023-03-15T07:33:28;95926.03;;;9.96;62.44
36630;BME280;36256;42.154;23.002;2023-03-15T07:35:56;95922.38;;;9.90;60.56
36630;BME280;36256;42.154;23.002;2023-03-15T07:38:25;95900.81;;;9.96;60.59
36630;BME280;36256;42.154;23.002;2023-03-15T07:40:51;95921.22;;;10.11;59.56
36630;BME280;36256;42.154;23.002;2023-03-15T07:43:18;95923.31;;;10.01;59.08
36630;BME280;36256;42.154;23.002;2023-03-15T07:45:45;95924.09;;;10.02;58.44
36630;BME280;36256;42.154;23.002;2023-03-15T07:48:12;95929.91;;;9.98;58.13
36630;BME280;36256;42.154;23.002;2023-03-15T07:50:39;95931.44;;;9.99;58.56
36630;BME280;36256;42.154;23.002;2023-03-15T07:53:06;95932.13;;;10.09;58.26
36630;BME280;36256;42.154;23.002;2023-03-15T07:55:33;95917.34;;;9.94;57.50
36630;BME280;36256;42.154;23.002;2023-03-15T07:58:01;95922.94;;;9.94;57.51
36630;BME280;36256;42.154;23.002;2023-03-15T08:00:28;95910.59;;;10.00;56.61
36630;BME280;36256;42.154;23.002;2023-03-15T08:02:55;95913.47;;;10.06;56.80
36630;BME280;36256;42.154;23.002;2023-03-15T08:05:21;95908.75;;;10.12;56.46
36630;BME280;36256;42.154;23.002;2023-03-15T08:07:48;95892.22;;;9.99;56.20
36630;BME280;36256;42.154;23.002;2023-03-15T08:10:16;95915.22;;;10.18;56.73
36630;BME280;36256;42.154;23.002;2023-03-15T08:12:43;95909.22;;;10.25;55.95
36630;BME280;36256;42.154;23.002;2023-03-15T08:15:14;95902.84;;;10.24;54.10
36630;BME280;36256;42.154;23.002;2023-03-15T08:17:41;95905.56;;;10.19;54.30
36630;BME280;36256;42.154;23.002;2023-03-15T08:20:09;95913.03;;;10.22;54.59
36630;BME280;36256;42.154;23.002;2023-03-15T08:22:48;95919.38;;;10.22;54.89
36630;BME280;36256;42.154;23.002;2023-03-15T08:25:18;95907.13;;;10.20;54.02
36630;BME280;36256;42.154;23.002;2023-03-15T08:27:45;95901.69;;;10.31;53.61
36630;BME280;36256;42.154;23.002;2023-03-15T08:30:13;95895.78;;;10.29;52.89
36630;BME280;36256;42.154;23.002;2023-03-15T08:32:44;95903.03;;;10.36;52.22
36630;BME280;36256;42.154;23.002;2023-03-15T08:35:13;95900.16;;;10.30;51.18
36630;BME280;36256;42.154;23.002;2023-03-15T08:37:42;95899.97;;;10.19;51.03
36630;BME280;36256;42.154;23.002;2023-03-15T08:40:18;95910.22;;;10.22;51.43
36630;BME280;36256;42.154;23.002;2023-03-15T08:42:51;95894.16;;;10.22;51.31
36630;BME280;36256;42.154;23.002;2023-03-15T08:45:19;95901.53;;;10.20;50.55
36630;BME280;36256;42.154;23.002;2023-03-15T08:47:46;95904.31;;;10.20;50.93
36630;BME280;36256;42.154;23.002;2023-03-15T08:50:13;95900.03;;;10.24;50.55
36630;BME280;36256;42.154;23.002;2023-03-15T08:52:41;95897.44;;;10.21;50.22
36630;BME280;36256;42.154;23.002;2023-03-15T08:55:08;95886.22;;;10.21;50.33
36630;BME280;36256;42.154;23.002;2023-03-15T08:57:36;95889.91;;;10.27;50.32
36630;BME280;36256;42.154;23.002;2023-03-15T09:00:03;95892.97;;;10.29;50.04
36630;BME280;36256;42.154;23.002;2023-03-15T09:02:35;95897.13;;;10.34;50.08
36630;BME280;36256;42.154;23.002;2023-03-15T09:05:02;95896.84;;;10.32;49.97
36630;BME280;36256;42.154;23.002;2023-03-15T09:07:32;95901.28;;;10.38;49.70
36630;BME280;36256;42.154;23.002;2023-03-15T09:09:59;95906.91;;;10.38;49.42
36630;BME280;36256;42.154;23.002;2023-03-15T09:12:28;95901.69;;;10.31;49.53
36630;BME280;36256;42.154;23.002;2023-03-15T09:14:54;95889.97;;;10.47;49.37
36630;BME280;36256;42.154;23.002;2023-03-15T09:17:21;95894.22;;;10.43;49.45
36630;BME280;36256;42.154;23.002;2023-03-15T09:19:48;95906.78;;;10.47;49.64
36630;BME280;36256;42.154;23.002;2023-03-15T09:22:14;95907.53;;;10.48;50.78
36630;BME280;36256;42.154;23.002;2023-03-15T09:24:49;95903.22;;;10.32;49.74
36630;BME280;36256;42.154;23.002;2023-03-15T09:27:17;95906.72;;;10.27;51.31
36630;BME280;36256;42.154;23.002;2023-03-15T09:29:44;95915.66;;;10.46;51.86
36630;BME280;36256;42.154;23.002;2023-03-15T09:32:10;95929.50;;;10.49;56.06
36630;BME280;36256;42.154;23.002;2023-03-15T09:34:37;95944.97;;;10.45;58.57
36630;BME280;36256;42.154;23.002;2023-03-15T09:37:07;95944.78;;;10.48;56.68
36630;BME280;36256;42.154;23.002;2023-03-15T09:39:34;95937.44;;;10.36;57.10
36630;BME280;36256;42.154;23.002;2023-03-15T09:42:01;95948.44;;;10.54;58.27
36630;BME280;36256;42.154;23.002;2023-03-15T09:44:34;95947.09;;;10.64;59.31
36630;BME280;36256;42.154;23.002;2023-03-15T09:52:25;95946.81;;;10.82;61.75
36630;BME280;36256;42.154;23.002;2023-03-15T09:54:59;95942.84;;;10.89;64.06
36630;BME280;36256;42.154;23.002;2023-03-15T10:00:25;95959.34;;;11.01;65.49
36630;BME280;36256;42.154;23.002;2023-03-15T10:02:56;95955.19;;;10.97;66.72
36630;BME280;36256;42.154;23.002;2023-03-15T10:05:40;95960.31;;;10.98;67.90
36630;BME280;36256;42.154;23.002;2023-03-15T10:08:17;95942.13;;;10.74;69.28
36630;BME280;36256;42.154;23.002;2023-03-15T10:10:51;95941.03;;;10.71;70.11
36630;BME280;36256;42.154;23.002;2023-03-15T10:13:32;95960.19;;;10.87;65.88
36630;BME280;36256;42.154;23.002;2023-03-15T10:19:14;95950.88;;;10.81;68.67
36630;BME280;36256;42.154;23.002;2023-03-15T10:21:50;95969.72;;;10.95;71.24
36630;BME280;36256;42.154;23.002;2023-03-15T10:24:24;95959.19;;;10.90;69.05
36630;BME280;36256;42.154;23.002;2023-03-15T10:26:58;95956.81;;;11.03;68.47
36630;BME280;36256;42.154;23.002;2023-03-15T10:29:26;95957.38;;;11.07;67.17
36630;BME280;36256;42.154;23.002;2023-03-15T10:31:53;95957.38;;;11.07;64.11
36630;BME280;36256;42.154;23.002;2023-03-15T10:34:21;95943.91;;;11.12;64.82
36630;BME280;36256;42.154;23.002;2023-03-15T10:36:51;95940.25;;;11.26;60.70
36630;BME280;36256;42.154;23.002;2023-03-15T10:39:23;95933.41;;;11.27;55.33
36630;BME280;36256;42.154;23.002;2023-03-15T10:41:50;95913.75;;;11.27;54.41
36630;BME280;36256;42.154;23.002;2023-03-15T10:44:25;95914.31;;;11.31;55.25
36630;BME280;36256;42.154;23.002;2023-03-15T10:47:10;95901.09;;;11.37;52.12
36630;BME280;36256;42.154;23.002;2023-03-15T10:49:49;95909.31;;;11.40;51.70
36630;BME280;36256;42.154;23.002;2023-03-15T10:52:38;95908.00;;;11.36;50.76
36630;BME280;36256;42.154;23.002;2023-03-15T10:55:10;95899.44;;;11.25;49.16
36630;BME280;36256;42.154;23.002;2023-03-15T10:57:39;95900.06;;;11.14;48.85
36630;BME280;36256;42.154;23.002;2023-03-15T11:00:24;95899.84;;;11.18;48.46
36630;BME280;36256;42.154;23.002;2023-03-15T11:03:05;95892.25;;;11.24;48.43
36630;BME280;36256;42.154;23.002;2023-03-15T11:05:50;95892.34;;;11.29;48.47
36630;BME280;36256;42.154;23.002;2023-03-15T11:08:20;95889.94;;;11.22;47.62
36630;BME280;36256;42.154;23.002;2023-03-15T11:10:56;95887.78;;;11.12;47.89
36630;BME280;36256;42.154;23.002;2023-03-15T11:13:31;95885.03;;;10.97;46.62
36630;BME280;36256;42.154;23.002;2023-03-15T11:18:44;95882.97;;;10.77;45.95
36630;BME280;36256;42.154;23.002;2023-03-15T11:21:16;95876.97;;;11.04;45.39
36630;BME280;36256;42.154;23.002;2023-03-15T11:23:49;95881.38;;;11.11;45.88
36630;BME280;36256;42.154;23.002;2023-03-15T11:26:21;95877.53;;;10.88;45.69
36630;BME280;36256;42.154;23.002;2023-03-15T11:29:03;95882.09;;;11.06;45.43
36630;BME280;36256;42.154;23.002;2023-03-15T11:31:30;95880.91;;;11.13;45.40
36630;BME280;36256;42.154;23.002;2023-03-15T11:34:02;95877.03;;;11.10;44.97
36630;BME280;36256;42.154;23.002;2023-03-15T11:36:33;95878.78;;;11.07;45.40
36630;BME280;36256;42.154;23.002;2023-03-15T11:39:02;95875.78;;;10.91;45.74
36630;BME280;36256;42.154;23.002;2023-03-15T11:41:40;95865.53;;;10.88;46.65
36630;BME280;36256;42.154;23.002;2023-03-15T11:46:49;95877.53;;;10.88;45.60
36630;BME280;36256;42.154;23.002;2023-03-15T11:49:34;95876.41;;;10.80;45.63
36630;BME280;36256;42.154;23.002;2023-03-15T11:52:02;95868.63;;;10.90;46.43
36630;BME280;36256;42.154;23.002;2023-03-15T11:54:30;95865.34;;;10.91;46.70
36630;BME280;36256;42.154;23.002;2023-03-15T11:57:05;95866.66;;;10.96;47.34
36630;BME280;36256;42.154;23.002;2023-03-15T11:59:38;95860.97;;;10.90;47.09
36630;BME280;36256;42.154;23.002;2023-03-15T12:07:23;95860.75;;;10.74;46.23
36630;BME280;36256;42.154;23.002;2023-03-15T12:20:40;95874.84;;;10.79;46.78
36630;BME280;36256;42.154;23.002;2023-03-15T12:25:58;95867.25;;;10.45;48.67
36630;BME280;36256;42.154;23.002;2023-03-15T12:28:36;95875.78;;;10.36;49.98
36630;BME280;36256;42.154;23.002;2023-03-15T12:31:08;95877.50;;;10.34;53.09
36630;BME280;36256;42.154;23.002;2023-03-15T12:33:50;95879.81;;;10.35;54.33
36630;BME280;36256;42.154;23.002;2023-03-15T12:41:42;95881.59;;;10.18;57.23
36630;BME280;36256;42.154;23.002;2023-03-15T12:44:25;95888.81;;;10.10;58.97
36630;BME280;36256;42.154;23.002;2023-03-15T12:47:04;95899.47;;;10.06;60.20
36630;BME280;36256;42.154;23.002;2023-03-15T12:49:42;95898.03;;;9.96;60.29
36630;BME280;36256;42.154;23.002;2023-03-15T12:54:46;95880.44;;;9.81;61.62
36630;BME280;36256;42.154;23.002;2023-03-15T12:57:23;95896.28;;;9.84;61.66
36630;BME280;36256;42.154;23.002;2023-03-15T13:00:16;95900.13;;;9.86;60.08
36630;BME280;36256;42.154;23.002;2023-03-15T13:05:18;95893.00;;;10.00;59.00
36630;BME280;36256;42.154;23.002;2023-03-15T13:18:22;95895.13;;;9.90;57.96
36630;BME280;36256;42.154;23.002;2023-03-15T13:21:03;95897.03;;;9.84;59.93
36630;BME280;36256;42.154;23.002;2023-03-15T13:23:32;95898.97;;;9.93;58.49
36630;BME280;36256;42.154;23.002;2023-03-15T13:29:23;95878.41;;;10.10;61.65
36630;BME280;36256;42.154;23.002;2023-03-15T13:34:39;95890.88;;;10.24;59.14
36630;BME280;36256;42.154;23.002;2023-03-15T13:37:20;95887.78;;;10.22;57.41
36630;BME280;36256;42.154;23.002;2023-03-15T13:40:01;95867.66;;;10.09;57.90
36630;BME280;36256;42.154;23.002;2023-03-15T13:42:28;95884.38;;;10.18;57.18
36630;BME280;36256;42.154;23.002;2023-03-15T13:45:09;95883.31;;;10.30;57.79
36630;BME280;36256;42.154;23.002;2023-03-15T13:47:39;95882.19;;;10.22;57.64
36630;BME280;36256;42.154;23.002;2023-03-15T13:50:10;95884.88;;;10.16;59.71
36630;BME280;36256;42.154;23.002;2023-03-15T13:52:39;95890.09;;;10.09;57.70
36630;BME280;36256;42.154;23.002;2023-03-15T13:55:06;95887.00;;;10.07;57.23
36630;BME280;36256;42.154;23.002;2023-03-15T13:57:35;95878.50;;;10.01;57.75
36630;BME280;36256;42.154;23.002;2023-03-15T14:00:14;95885.06;;;9.98;56.73
36630;BME280;36256;42.154;23.002;2023-03-15T14:02:53;95882.34;;;10.04;56.38
36630;BME280;36256;42.154;23.002;2023-03-15T14:05:24;95875.50;;;10.05;57.91
36630;BME280;36256;42.154;23.002;2023-03-15T14:08:02;95882.47;;;10.24;58.10
36630;BME280;36256;42.154;23.002;2023-03-15T14:10:33;95883.31;;;10.30;57.73
36630;BME280;36256;42.154;23.002;2023-03-15T14:15:57;95870.38;;;10.18;57.48
36630;BME280;36256;42.154;23.002;2023-03-15T14:18:35;95861.47;;;10.34;58.74
36630;BME280;36256;42.154;23.002;2023-03-15T14:21:15;95855.28;;;10.30;57.09
36630;BME280;36256;42.154;23.002;2023-03-15T14:23:45;95859.91;;;10.33;58.05
36630;BME280;36256;42.154;23.002;2023-03-15T14:28:53;95864.34;;;10.40;58.03
36630;BME280;36256;42.154;23.002;2023-03-15T14:31:24;95865.50;;;10.33;57.43